createdAt,value
2018-09-22T00:01:50.015Z,58.00
2018-09-22T00:04:18.958Z,57.85
2018-09-22T00:06:47.784Z,57.91
2018-09-22T00:09:16.639Z,58.39
2018-09-22T00:11:45.548Z,58.64
2018-09-22T00:14:14.289Z,57.92
2018-09-22T00:16:43.127Z,58.99
2018-09-22T00:19:13.727Z,58.31
2018-09-22T00:21:42.712Z,59.25
2018-09-22T00:24:11.766Z,59.01
2018-09-22T00:26:40.572Z,58.06
2018-09-22T00:29:09.416Z,58.72
2018-09-22T00:31:38.187Z,57.62
2018-09-22T00:34:07.056Z,57.77
2018-09-22T00:36:35.924Z,58.59
2018-09-22T00:39:06.573Z,57.96
2018-09-22T00:41:35.445Z,58.07
2018-09-22T00:44:04.441Z,59.14
2018-09-22T00:46:33.411Z,58.97
2018-09-22T00:49:02.179Z,58.78
2018-09-22T00:51:31.496Z,58.50
2018-09-22T00:54:00.425Z,58.75
2018-09-22T00:56:29.232Z,58.55
2018-09-22T00:58:58.137Z,58.87
2018-09-22T01:01:27.039Z,58.33
2018-09-22T01:03:55.914Z,58.00
2018-09-22T01:06:24.870Z,58.24
2018-09-22T01:08:53.707Z,58.29
2018-09-22T01:11:22.658Z,58.64
2018-09-22T01:13:51.519Z,58.93
2018-09-22T01:16:20.279Z,58.17
2018-09-22T01:18:49.133Z,58.11
2018-09-22T01:21:18.041Z,57.89
2018-09-22T01:23:46.844Z,57.83
2018-09-22T01:26:15.762Z,58.19
2018-09-22T01:28:44.560Z,58.25
2018-09-22T01:31:13.429Z,58.39
2018-09-22T01:33:42.257Z,58.73
2018-09-22T01:36:11.061Z,58.45
2018-09-22T01:38:39.851Z,59.28
2018-09-22T01:41:08.870Z,59.22
2018-09-22T01:43:37.748Z,58.83
2018-09-22T01:46:06.576Z,58.96
2018-09-22T01:48:35.510Z,58.69
2018-09-22T01:51:04.357Z,58.55
2018-09-22T01:53:33.254Z,58.64
2018-09-22T01:56:02.080Z,57.92
2018-09-22T01:58:30.961Z,58.38
2018-09-22T02:00:59.835Z,58.46
2018-09-22T02:03:28.658Z,58.65
2018-09-22T02:05:57.462Z,58.36
2018-09-22T02:08:26.336Z,58.85
2018-09-22T02:10:55.188Z,58.64
2018-09-22T02:13:24.134Z,58.33
2018-09-22T02:15:53.074Z,59.09
2018-09-22T02:18:21.950Z,59.36
2018-09-22T02:20:50.818Z,59.88
2018-09-22T02:23:19.708Z,60.32
2018-09-22T02:25:48.728Z,59.64
2018-09-22T02:28:17.516Z,60.38
2018-09-22T02:30:46.391Z,61.38
2018-09-22T02:33:15.350Z,60.85
2018-09-22T02:35:44.536Z,60.02
2018-09-22T02:38:13.456Z,59.91
2018-09-22T02:40:42.360Z,60.00
2018-09-22T02:43:11.217Z,59.33
2018-09-22T02:45:40.112Z,59.70
2018-09-22T02:48:09.046Z,59.71
2018-09-22T02:50:37.910Z,60.73
2018-09-22T02:53:06.769Z,61.40
2018-09-22T02:55:35.713Z,61.98
2018-09-22T02:58:04.704Z,61.51
2018-09-22T03:00:33.621Z,62.16
2018-09-22T03:03:02.520Z,62.03
2018-09-22T03:05:31.397Z,63.14
2018-09-22T03:08:00.313Z,62.36
2018-09-22T03:10:29.172Z,62.69
2018-09-22T03:12:58.064Z,63.01
2018-09-22T03:15:26.961Z,63.41
2018-09-22T03:17:55.964Z,63.56
2018-09-22T03:20:24.801Z,63.39
2018-09-22T03:22:53.677Z,63.28
2018-09-22T03:25:22.612Z,63.41
2018-09-22T03:27:51.450Z,63.62
2018-09-22T03:30:20.528Z,63.68
2018-09-22T03:32:49.339Z,64.14
2018-09-22T03:35:18.260Z,64.34
2018-09-22T03:37:47.063Z,64.31
2018-09-22T03:40:15.907Z,64.15
2018-09-22T03:42:44.950Z,64.41
2018-09-22T03:45:14.104Z,64.86
2018-09-22T03:47:42.882Z,63.95
2018-09-22T03:50:11.690Z,64.14
2018-09-22T03:52:40.536Z,64.12
2018-09-22T03:55:09.337Z,64.86
2018-09-22T03:57:38.204Z,64.75
2018-09-22T04:00:08.089Z,64.97
2018-09-22T04:02:36.900Z,65.26
2018-09-22T04:05:05.864Z,65.40
2018-09-22T04:07:34.747Z,64.66
2018-09-22T04:10:03.594Z,64.76
2018-09-22T04:12:32.565Z,64.83
2018-09-22T04:15:01.375Z,64.50
2018-09-22T04:17:30.261Z,64.52
2018-09-22T04:19:59.192Z,64.51
2018-09-22T04:22:27.985Z,63.79
2018-09-22T04:24:56.803Z,64.64
2018-09-22T04:27:25.662Z,64.27
2018-09-22T04:29:54.704Z,64.24
2018-09-22T04:32:23.654Z,63.45
2018-09-22T04:34:52.449Z,63.94
2018-09-22T04:37:21.265Z,63.31
2018-09-22T04:39:50.083Z,62.95
2018-09-22T04:42:19.029Z,63.60
2018-09-22T04:44:47.942Z,62.76
2018-09-22T04:47:16.772Z,63.29
2018-09-22T04:49:45.659Z,63.05
2018-09-22T04:52:14.530Z,62.88
2018-09-22T04:54:43.331Z,63.14
2018-09-22T04:57:12.203Z,62.34
2018-09-22T04:59:41.035Z,61.91
2018-09-22T05:02:10.041Z,62.62
2018-09-22T05:04:39.156Z,62.22
2018-09-22T05:07:08.355Z,62.43
2018-09-22T05:09:37.211Z,61.61
2018-09-22T05:12:06.465Z,61.53
2018-09-22T05:14:35.327Z,62.32
2018-09-22T05:17:04.357Z,61.18
2018-09-22T05:19:33.412Z,61.69
2018-09-22T05:22:02.255Z,60.70
2018-09-22T05:24:31.067Z,60.26
2018-09-22T05:26:59.863Z,59.12
2018-09-22T05:29:28.684Z,59.03
2018-09-22T05:31:57.492Z,57.58
2018-09-22T05:34:26.503Z,58.18
2018-09-22T05:36:55.486Z,57.12
2018-09-22T05:39:24.368Z,58.00
2018-09-22T05:41:53.257Z,57.22
2018-09-22T05:44:22.176Z,57.84
2018-09-22T05:46:51.032Z,56.84
2018-09-22T05:49:19.865Z,56.91
2018-09-22T05:51:48.688Z,56.68
2018-09-22T05:54:17.775Z,57.36
2018-09-22T05:56:46.663Z,56.47
2018-09-22T05:59:16.324Z,57.12
2018-09-22T06:01:45.138Z,57.01
2018-09-22T06:04:13.989Z,55.91
2018-09-22T06:06:42.897Z,55.71
2018-09-22T06:09:11.691Z,55.43
2018-09-22T06:11:40.571Z,56.88
2018-09-22T06:14:09.527Z,55.85
2018-09-22T06:16:38.333Z,56.35
2018-09-22T06:19:07.241Z,56.28
2018-09-22T06:21:37.003Z,56.20
2018-09-22T06:24:05.851Z,56.47
2018-09-22T06:26:34.688Z,55.48
2018-09-22T06:29:03.529Z,56.22
2018-09-22T06:31:32.432Z,55.99
2018-09-22T06:34:01.327Z,56.62
2018-09-22T06:36:30.213Z,56.74
2018-09-22T06:38:59.057Z,56.72
2018-09-22T06:41:28.554Z,56.14
2018-09-22T06:43:57.460Z,56.01
2018-09-22T06:46:26.265Z,55.33
2018-09-22T06:48:55.160Z,55.53
2018-09-22T06:51:23.996Z,54.74
2018-09-22T06:53:52.795Z,54.48
2018-09-22T06:56:21.756Z,54.32
2018-09-22T06:58:50.713Z,53.25
2018-09-22T07:01:19.504Z,53.70
2018-09-22T07:03:48.334Z,52.82
2018-09-22T07:06:17.347Z,53.58
2018-09-22T07:08:46.189Z,53.57
2018-09-22T07:11:15.016Z,52.51
2018-09-22T07:13:44.005Z,52.94
2018-09-22T07:16:13.004Z,52.61
2018-09-22T07:18:41.867Z,52.03
2018-09-22T07:21:10.737Z,52.20
2018-09-22T07:23:39.576Z,51.72
2018-09-22T07:26:08.488Z,51.42
2018-09-22T07:28:37.523Z,52.30
2018-09-22T07:31:06.645Z,51.53
2018-09-22T07:33:35.491Z,52.57
2018-09-22T07:36:04.391Z,51.99
2018-09-22T07:38:33.287Z,50.10
2018-09-22T07:41:02.117Z,50.55
2018-09-22T07:43:30.987Z,50.26
2018-09-22T07:45:59.862Z,49.64
2018-09-22T07:48:28.689Z,49.22
2018-09-22T07:50:57.616Z,49.25
2018-09-22T07:53:27.015Z,50.46
2018-09-22T07:55:55.880Z,49.82
2018-09-22T07:58:24.877Z,49.92
2018-09-22T08:00:53.697Z,49.49
2018-09-22T08:03:22.664Z,49.52
2018-09-22T08:05:51.508Z,48.19
2018-09-22T08:08:20.360Z,47.70
2018-09-22T08:10:49.295Z,48.63
2018-09-22T08:13:18.143Z,48.39
2018-09-22T08:15:47.064Z,47.56
2018-09-22T08:18:15.988Z,47.92
2018-09-22T08:20:44.958Z,46.79
2018-09-22T08:23:13.806Z,46.72
2018-09-22T08:25:42.671Z,45.79
2018-09-22T08:28:11.509Z,46.44
2018-09-22T08:30:40.383Z,46.05
2018-09-22T08:33:09.275Z,44.93
2018-09-22T08:35:38.228Z,44.72
2018-09-22T08:38:07.048Z,45.63
2018-09-22T08:40:35.967Z,45.69
2018-09-22T08:43:04.764Z,45.71
2018-09-22T08:45:33.595Z,44.94
2018-09-22T08:48:02.495Z,45.65
2018-09-22T08:50:32.104Z,45.28
2018-09-22T08:53:00.939Z,45.27
2018-09-22T08:55:29.885Z,44.49
2018-09-22T08:57:58.893Z,44.15
2018-09-22T09:00:27.943Z,43.88
2018-09-22T09:02:56.956Z,44.47
2018-09-22T09:05:25.893Z,44.13
2018-09-22T09:07:54.696Z,44.59
2018-09-22T09:10:23.546Z,44.14
2018-09-22T09:12:52.475Z,43.38
2018-09-22T09:15:21.356Z,43.84
2018-09-22T09:17:50.243Z,43.28
2018-09-22T09:20:19.238Z,42.73
2018-09-22T09:22:48.142Z,43.14
2018-09-22T09:25:17.017Z,43.21
2018-09-22T09:27:45.942Z,42.10
2018-09-22T09:30:14.994Z,42.77
2018-09-22T09:32:43.867Z,42.36
2018-09-22T09:35:12.841Z,42.49
2018-09-22T09:37:41.768Z,42.31
2018-09-22T09:40:11.018Z,41.24
2018-09-22T09:42:39.876Z,41.10
2018-09-22T09:45:08.751Z,40.92
2018-09-22T09:47:37.593Z,41.91
2018-09-22T09:50:06.580Z,41.33
2018-09-22T09:52:35.423Z,40.85
2018-09-22T09:55:04.263Z,40.63
2018-09-22T09:57:33.104Z,40.55
2018-09-22T10:00:02.073Z,40.76
2018-09-22T10:02:30.944Z,41.20
2018-09-22T10:04:59.756Z,41.07
2018-09-22T10:07:28.723Z,40.79
2018-09-22T10:09:57.683Z,40.07
2018-09-22T10:12:26.502Z,39.35
2018-09-22T10:14:55.460Z,39.91
2018-09-22T10:17:24.415Z,39.32
2018-09-22T10:19:53.209Z,38.42
2018-09-22T10:22:22.018Z,39.15
2018-09-22T10:24:50.928Z,38.54
2018-09-22T10:27:19.824Z,37.59
2018-09-22T10:29:48.748Z,37.79
2018-09-22T10:32:17.660Z,38.04
2018-09-22T10:34:46.498Z,37.14
2018-09-22T10:37:15.336Z,37.82
2018-09-22T10:39:44.271Z,36.30
2018-09-22T10:42:13.208Z,35.87
2018-09-22T10:44:42.084Z,36.44
2018-09-22T10:47:11.031Z,36.00
2018-09-22T10:49:39.839Z,34.80
2018-09-22T10:52:08.668Z,34.56
2018-09-22T10:54:37.524Z,34.48
2018-09-22T10:57:07.155Z,34.42
2018-09-22T10:59:36.024Z,34.93
2018-09-22T11:02:04.977Z,34.51
2018-09-22T11:04:33.835Z,33.99
2018-09-22T11:07:02.931Z,33.12
2018-09-22T11:09:31.841Z,32.92
2018-09-22T11:12:00.612Z,33.80
2018-09-22T11:14:29.879Z,32.50
2018-09-22T11:16:58.745Z,32.18
2018-09-22T11:19:27.580Z,31.15
2018-09-22T11:21:56.459Z,30.89
2018-09-22T11:24:25.567Z,31.85
2018-09-22T11:26:54.435Z,31.30
2018-09-22T11:29:23.664Z,30.84
2018-09-22T11:31:52.580Z,29.23
2018-09-22T11:34:21.466Z,30.19
2018-09-22T11:36:50.319Z,29.47
2018-09-22T11:39:19.238Z,29.69
2018-09-22T11:41:48.079Z,27.75
2018-09-22T11:44:17.034Z,28.64
2018-09-22T11:46:45.964Z,28.11
2018-09-22T11:49:14.828Z,25.42
2018-09-22T11:51:43.698Z,26.67
2018-09-22T11:54:12.613Z,26.19
2018-09-22T11:56:41.542Z,24.42
2018-09-22T11:59:10.466Z,24.62
2018-09-22T12:01:39.417Z,24.11
2018-09-22T12:04:08.544Z,24.09
2018-09-22T12:06:37.497Z,22.68
2018-09-22T12:09:10.105Z,23.17
2018-09-22T12:11:39.124Z,23.36
2018-09-22T12:14:08.157Z,22.43
2018-09-22T12:16:37.229Z,21.58
2018-09-22T12:19:06.315Z,23.15
2018-09-22T12:21:35.157Z,23.62
2018-09-22T12:24:04.287Z,23.90
2018-09-22T12:26:33.195Z,23.31
2018-09-22T12:29:02.111Z,24.82
2018-09-22T12:31:30.960Z,25.24
2018-09-22T12:33:59.804Z,25.16
2018-09-22T12:36:28.650Z,24.07
2018-09-22T12:38:57.480Z,24.35
2018-09-22T12:41:26.370Z,24.34
2018-09-22T12:43:55.247Z,24.13
2018-09-22T12:46:24.106Z,24.55
2018-09-22T12:48:52.996Z,24.94
2018-09-22T12:51:21.918Z,25.05
2018-09-22T12:53:50.985Z,25.16
2018-09-22T12:56:20.017Z,24.86
2018-09-22T12:58:48.912Z,25.20
2018-09-22T13:01:17.796Z,26.21
2018-09-22T13:03:46.725Z,24.94
2018-09-22T13:06:16.848Z,25.82
2018-09-22T13:08:45.752Z,24.67
2018-09-22T13:11:14.721Z,25.95
2018-09-22T13:13:43.617Z,25.78
2018-09-22T13:16:12.503Z,26.01
2018-09-22T13:18:41.381Z,26.18
2018-09-22T13:21:10.206Z,25.46
2018-09-22T13:23:40.244Z,24.58
2018-09-22T13:26:09.276Z,25.81
2018-09-22T13:28:38.235Z,24.91
2018-09-22T13:31:07.335Z,25.90
2018-09-22T13:33:36.423Z,25.62
2018-09-22T13:36:05.734Z,26.02
2018-09-22T13:38:34.743Z,26.05
2018-09-22T13:41:03.831Z,26.06
2018-09-22T13:43:32.699Z,25.19
2018-09-22T13:46:01.713Z,25.32
2018-09-22T13:48:30.693Z,25.96
2018-09-22T13:50:59.675Z,25.73
2018-09-22T13:53:28.685Z,25.17
2018-09-22T13:55:57.479Z,26.77
2018-09-22T13:58:26.361Z,25.54
2018-09-22T14:00:55.254Z,25.77
2018-09-22T14:03:24.104Z,25.34
2018-09-22T14:05:53.042Z,25.37
2018-09-22T14:08:21.928Z,25.09
2018-09-22T14:10:50.854Z,25.82
2018-09-22T14:13:19.845Z,25.92
2018-09-22T14:15:48.862Z,25.28
2018-09-22T14:18:17.673Z,25.58
2018-09-22T14:20:46.590Z,26.15
2018-09-22T14:23:15.401Z,26.75
2018-09-22T14:25:44.316Z,27.03
2018-09-22T14:28:13.126Z,26.29
2018-09-22T14:30:41.951Z,25.97
2018-09-22T14:33:10.761Z,26.89
2018-09-22T14:35:39.653Z,26.31
2018-09-22T14:38:08.567Z,26.99
2018-09-22T14:40:37.542Z,26.05
2018-09-22T14:43:06.833Z,26.58
2018-09-22T14:45:35.792Z,26.29
2018-09-22T14:48:04.719Z,26.74
2018-09-22T14:50:33.575Z,27.57
2018-09-22T14:53:02.398Z,27.83
2018-09-22T14:55:31.315Z,27.05
2018-09-22T14:58:00.212Z,28.45
2018-09-22T15:00:29.085Z,28.73
2018-09-22T15:02:57.925Z,27.46
2018-09-22T15:05:26.781Z,27.56
2018-09-22T15:07:57.021Z,27.44
2018-09-22T15:10:26.501Z,28.86
2018-09-22T15:12:55.406Z,27.64
2018-09-22T15:15:24.381Z,28.72
2018-09-22T15:17:54.635Z,27.78
2018-09-22T15:20:23.477Z,29.25
2018-09-22T15:22:52.404Z,28.06
2018-09-22T15:25:21.367Z,30.37
2018-09-22T15:27:50.235Z,32.29
2018-09-22T15:30:19.151Z,31.81
2018-09-22T15:32:48.129Z,32.16
2018-09-22T15:35:16.962Z,33.54
2018-09-22T15:37:45.805Z,33.29
2018-09-22T15:40:14.614Z,33.21
2018-09-22T15:43:09.242Z,34.34
2018-09-22T15:45:38.153Z,34.20
2018-09-22T15:48:13.199Z,34.51
2018-09-22T15:50:42.404Z,35.62
2018-09-22T15:53:11.286Z,34.81
2018-09-22T15:55:40.156Z,35.08
2018-09-22T15:58:09.055Z,36.44
2018-09-22T16:00:38.054Z,35.82
2018-09-22T16:03:06.961Z,37.01
2018-09-22T16:05:35.850Z,37.20
2018-09-22T16:08:05.151Z,37.44
2018-09-22T16:10:34.030Z,36.70
2018-09-22T16:13:02.926Z,37.14
2018-09-22T16:15:31.913Z,37.26
2018-09-22T16:18:00.729Z,37.81
2018-09-22T16:20:29.652Z,38.14
2018-09-22T16:22:58.531Z,38.94
2018-09-22T16:25:27.393Z,38.82
2018-09-22T16:27:56.240Z,38.47
2018-09-22T16:30:25.136Z,38.64
2018-09-22T16:32:53.971Z,38.64
2018-09-22T16:35:22.858Z,39.02
2018-09-22T16:37:51.874Z,39.32
2018-09-22T16:40:20.881Z,39.72
2018-09-22T16:42:49.754Z,39.89
2018-09-22T16:45:18.737Z,39.07
2018-09-22T16:47:47.683Z,40.68
2018-09-22T16:50:16.518Z,41.33
2018-09-22T16:52:45.363Z,41.09
2018-09-22T16:55:14.302Z,41.55
2018-09-22T16:57:43.177Z,41.72
2018-09-22T17:00:12.105Z,41.84
2018-09-22T17:02:40.983Z,42.81
2018-09-22T17:05:10.812Z,42.28
2018-09-22T17:07:39.713Z,43.08
2018-09-22T17:10:08.543Z,43.39
2018-09-22T17:12:38.589Z,43.57
2018-09-22T17:15:07.678Z,42.66
2018-09-22T17:17:36.557Z,42.87
2018-09-22T17:20:05.508Z,42.58
2018-09-22T17:22:34.395Z,43.05
2018-09-22T17:25:03.378Z,42.30
2018-09-22T17:27:32.305Z,43.09
2018-09-22T17:30:01.260Z,43.19
2018-09-22T17:32:30.152Z,43.54
2018-09-22T17:34:59.123Z,43.23
2018-09-22T17:37:28.257Z,44.40
2018-09-22T17:39:57.090Z,44.62
2018-09-22T17:42:26.017Z,43.94
2018-09-22T17:44:54.894Z,44.35
2018-09-22T17:47:23.749Z,45.13
2018-09-22T17:49:52.785Z,46.24
2018-09-22T17:52:21.654Z,46.41
2018-09-22T17:54:57.209Z,45.71
2018-09-22T17:57:26.152Z,45.69
2018-09-22T17:59:55.085Z,45.56
2018-09-22T18:02:24.147Z,46.00
2018-09-22T18:04:52.977Z,47.20
2018-09-22T18:07:21.806Z,47.12
2018-09-22T18:09:50.612Z,47.47
2018-09-22T18:12:19.525Z,48.67
2018-09-22T18:14:48.375Z,48.16
2018-09-22T18:17:17.319Z,48.93
2018-09-22T18:19:46.333Z,48.69
2018-09-22T18:22:15.197Z,49.61
2018-09-22T18:24:44.006Z,50.00
2018-09-22T18:27:13.327Z,49.34
2018-09-22T18:29:42.201Z,49.47
2018-09-22T18:32:11.007Z,49.76
2018-09-22T18:34:39.798Z,49.98
2018-09-22T18:37:08.694Z,50.83
2018-09-22T18:39:37.881Z,50.24
2018-09-22T18:42:06.779Z,51.00
2018-09-22T18:44:35.603Z,50.94
2018-09-22T18:47:04.498Z,51.46
2018-09-22T18:49:33.407Z,51.04
2018-09-22T18:52:02.293Z,51.74
2018-09-22T18:54:31.111Z,52.14
2018-09-22T18:57:00.124Z,51.63
2018-09-22T18:59:29.114Z,51.16
2018-09-22T19:01:58.210Z,51.90
2018-09-22T19:04:27.392Z,51.43
2018-09-22T19:06:56.239Z,51.55
2018-09-22T19:09:25.128Z,51.96
2018-09-22T19:11:54.035Z,53.32
2018-09-22T19:14:27.681Z,52.44
2018-09-22T19:17:02.197Z,53.00
2018-09-22T19:19:35.812Z,52.63
2018-09-22T19:22:06.699Z,53.47
2018-09-22T19:24:50.594Z,54.07
2018-09-22T19:27:32.806Z,53.96
2018-09-22T19:30:08.275Z,53.86
2018-09-22T19:32:40.197Z,53.79
2018-09-22T19:35:13.549Z,53.96
2018-09-22T19:38:06.223Z,53.98
2018-09-22T19:40:41.229Z,54.54
2018-09-22T19:43:14.124Z,54.56
2018-09-22T19:45:48.312Z,54.63
2018-09-22T19:49:20.202Z,54.01
2018-09-22T19:51:52.605Z,53.50
2018-09-22T19:54:21.454Z,53.66
2018-09-22T19:56:50.388Z,53.78
2018-09-22T19:59:19.303Z,54.66
2018-09-22T20:01:48.208Z,53.76
2018-09-22T20:04:17.232Z,53.38
2018-09-22T20:06:46.205Z,52.45
2018-09-22T20:09:15.171Z,52.75
2018-09-22T20:11:44.172Z,51.33
2018-09-22T20:14:13.272Z,50.51
2018-09-22T20:16:42.187Z,49.91
2018-09-22T20:19:11.177Z,49.75
2018-09-22T20:21:40.033Z,49.32
2018-09-22T20:24:08.936Z,49.60
2018-09-22T20:26:37.950Z,49.38
2018-09-22T20:29:06.880Z,50.22
2018-09-22T20:31:35.821Z,52.65
2018-09-22T20:34:04.784Z,53.48
2018-09-22T20:36:33.676Z,53.67
2018-09-22T20:39:03.015Z,54.00
2018-09-22T20:41:31.889Z,54.03
2018-09-22T20:44:00.708Z,54.40
2018-09-22T20:46:29.570Z,54.94
2018-09-22T20:48:58.520Z,54.48
2018-09-22T20:51:27.409Z,55.37
2018-09-22T20:53:56.361Z,55.67
2018-09-22T20:56:25.408Z,55.22
2018-09-22T20:58:54.335Z,54.98
2018-09-22T21:01:23.219Z,54.74
2018-09-22T21:03:52.084Z,55.31
2018-09-22T21:06:21.427Z,54.59
2018-09-22T21:08:50.624Z,54.61
2018-09-22T21:11:19.477Z,53.01
2018-09-22T21:13:48.286Z,53.45
2018-09-22T21:16:17.299Z,53.24
2018-09-22T21:18:46.337Z,53.77
2018-09-22T21:21:15.379Z,54.67
2018-09-22T21:23:44.409Z,54.37
2018-09-22T21:26:13.285Z,54.50
2018-09-22T21:28:42.103Z,54.41
2018-09-22T21:31:11.069Z,54.53
2018-09-22T21:33:39.929Z,54.37
2018-09-22T21:36:08.763Z,54.81
2018-09-22T21:38:37.764Z,54.87
2018-09-22T21:41:06.651Z,55.76
2018-09-22T21:43:35.447Z,56.60
2018-09-22T21:46:04.338Z,56.71
2018-09-22T21:48:33.272Z,56.98
2018-09-22T21:51:02.284Z,56.24
2018-09-22T21:53:31.062Z,56.47
2018-09-22T21:55:59.959Z,56.36
2018-09-22T21:58:28.971Z,57.01
2018-09-22T22:00:57.836Z,56.31
2018-09-22T22:03:26.747Z,57.53
2018-09-22T22:05:55.658Z,57.72
2018-09-22T22:08:24.871Z,57.52
2018-09-22T22:10:53.905Z,57.58
2018-09-22T22:13:23.792Z,57.70
2018-09-22T22:15:52.611Z,57.48
2018-09-22T22:18:21.453Z,57.59
2018-09-22T22:20:50.328Z,56.87
2018-09-22T22:23:19.288Z,57.78
2018-09-22T22:25:48.301Z,57.93
2018-09-22T22:28:17.213Z,57.17
2018-09-22T22:30:46.100Z,58.24
2018-09-22T22:33:14.910Z,58.12
2018-09-22T22:35:43.728Z,58.60
2018-09-22T22:38:12.649Z,58.94
2018-09-22T22:40:41.498Z,58.36
2018-09-22T22:43:10.349Z,59.10
2018-09-22T22:45:39.227Z,59.36
2018-09-22T22:48:08.192Z,58.83
2018-09-22T22:50:37.083Z,59.86
2018-09-22T22:53:05.961Z,59.98
2018-09-22T22:55:34.792Z,59.60
2018-09-22T22:58:03.665Z,60.90
2018-09-22T23:00:32.652Z,62.19
2018-09-22T23:03:01.581Z,62.59
2018-09-22T23:05:30.426Z,62.30
2018-09-22T23:07:59.260Z,63.24
2018-09-22T23:10:28.104Z,64.22
2018-09-22T23:12:56.936Z,63.52
2018-09-22T23:15:25.784Z,64.60
2018-09-22T23:17:54.702Z,64.85
2018-09-22T23:20:23.551Z,65.06
2018-09-22T23:22:52.529Z,65.59
2018-09-22T23:25:21.387Z,65.72
2018-09-22T23:27:50.243Z,66.24
2018-09-22T23:30:19.218Z,66.18
2018-09-22T23:32:48.114Z,66.04
2018-09-22T23:35:16.988Z,66.07
2018-09-22T23:37:45.788Z,66.09
2018-09-22T23:40:14.727Z,65.46
2018-09-22T23:42:43.592Z,65.81
2018-09-22T23:45:12.589Z,66.08
2018-09-22T23:47:41.444Z,66.47
2018-09-22T23:50:10.361Z,66.32
2018-09-22T23:52:39.212Z,66.07
2018-09-22T23:55:08.366Z,66.98
2018-09-22T23:57:37.256Z,67.10
